sensor_id;sensor_type;location;lat;lon;timestamp;temperature;humidity
31729;DHT22;18309;43.658;1.312;2022-11-15T00:00:28;14.00;99.90
31729;DHT22;18309;43.658;1.312;2022-11-15T00:02:54;14.00;99.90
31729;DHT22;18309;43.658;1.312;2022-11-15T00:05:20;14.00;99.90
31729;DHT22;18309;43.658;1.312;2022-11-15T00:07:46;14.00;99.90
31729;DHT22;18309;43.658;1.312;2022-11-15T00:10:12;14.00;99.90
31729;DHT22;18309;43.658;1.312;2022-11-15T00:12:38;13.90;99.90
31729;DHT22;18309;43.658;1.312;2022-11-15T00:15:04;13.90;99.90
31729;DHT22;18309;43.658;1.312;2022-11-15T00:17:30;14.00;99.90
31729;DHT22;18309;43.658;1.312;2022-11-15T00:19:56;13.90;99.90
31729;DHT22;18309;43.658;1.312;2022-11-15T00:22:21;13.90;99.90
31729;DHT22;18309;43.658;1.312;2022-11-15T00:24:47;13.90;99.90
31729;DHT22;18309;43.658;1.312;2022-11-15T00:27:13;13.90;99.90
31729;DHT22;18309;43.658;1.312;2022-11-15T00:29:39;13.90;99.90
31729;DHT22;18309;43.658;1.312;2022-11-15T00:32:11;13.90;99.90
31729;DHT22;18309;43.658;1.312;2022-11-15T00:34:37;13.90;99.90
31729;DHT22;18309;43.658;1.312;2022-11-15T00:37:02;13.90;99.90
31729;DHT22;18309;43.658;1.312;2022-11-15T00:39:28;13.80;99.90
31729;DHT22;18309;43.658;1.312;2022-11-15T00:41:54;13.80;99.90
31729;DHT22;18309;43.658;1.312;2022-11-15T00:44:20;13.80;99.90
31729;DHT22;18309;43.658;1.312;2022-11-15T00:46:45;13.80;99.90
31729;DHT22;18309;43.658;1.312;2022-11-15T00:49:11;13.80;99.90
31729;DHT22;18309;43.658;1.312;2022-11-15T00:51:37;13.80;99.90
31729;DHT22;18309;43.658;1.312;2022-11-15T00:54:03;13.80;99.90
31729;DHT22;18309;43.658;1.312;2022-11-15T00:56:28;13.80;99.90
31729;DHT22;18309;43.658;1.312;2022-11-15T00:58:54;13.80;99.90
31729;DHT22;18309;43.658;1.312;2022-11-15T01:01:20;13.70;99.90
31729;DHT22;18309;43.658;1.312;2022-11-15T01:03:45;13.70;99.90
31729;DHT22;18309;43.658;1.312;2022-11-15T01:06:11;13.70;99.90
31729;DHT22;18309;43.658;1.312;2022-11-15T01:08:40;13.70;99.90
31729;DHT22;18309;43.658;1.312;2022-11-15T01:11:10;13.70;99.90
31729;DHT22;18309;43.658;1.312;2022-11-15T01:13:37;13.70;99.90
31729;DHT22;18309;43.658;1.312;2022-11-15T01:16:10;13.70;99.90
31729;DHT22;18309;43.658;1.312;2022-11-15T01:18:37;13.70;99.90
31729;DHT22;18309;43.658;1.312;2022-11-15T01:21:12;13.70;99.90
31729;DHT22;18309;43.658;1.312;2022-11-15T01:23:38;13.70;99.90
31729;DHT22;18309;43.658;1.312;2022-11-15T01:26:06;13.70;99.90
31729;DHT22;18309;43.658;1.312;2022-11-15T01:28:34;13.70;99.90
31729;DHT22;18309;43.658;1.312;2022-11-15T01:31:02;13.70;99.90
31729;DHT22;18309;43.658;1.312;2022-11-15T01:33:28;13.70;99.90
31729;DHT22;18309;43.658;1.312;2022-11-15T01:35:54;13.70;99.90
31729;DHT22;18309;43.658;1.312;2022-11-15T01:38:20;13.70;99.90
31729;DHT22;18309;43.658;1.312;2022-11-15T01:40:46;13.70;99.90
31729;DHT22;18309;43.658;1.312;2022-11-15T01:43:29;13.70;99.90
31729;DHT22;18309;43.658;1.312;2022-11-15T01:46:22;13.60;99.90
31729;DHT22;18309;43.658;1.312;2022-11-15T01:48:44;13.70;99.90
31729;DHT22;18309;43.658;1.312;2022-11-15T01:51:11;13.70;99.90
31729;DHT22;18309;43.658;1.312;2022-11-15T01:53:40;13.60;99.90
31729;DHT22;18309;43.658;1.312;2022-11-15T01:56:09;13.60;99.90
31729;DHT22;18309;43.658;1.312;2022-11-15T01:58:36;13.60;99.90
31729;DHT22;18309;43.658;1.312;2022-11-15T02:01:02;13.70;99.90
31729;DHT22;18309;43.658;1.312;2022-11-15T02:03:50;13.60;99.90
31729;DHT22;18309;43.658;1.312;2022-11-15T02:06:17;13.60;99.90
31729;DHT22;18309;43.658;1.312;2022-11-15T02:08:44;13.60;99.90
31729;DHT22;18309;43.658;1.312;2022-11-15T02:11:10;13.60;99.90
31729;DHT22;18309;43.658;1.312;2022-11-15T02:13:36;13.60;99.90
31729;DHT22;18309;43.658;1.312;2022-11-15T02:19:09;13.60;99.90
31729;DHT22;18309;43.658;1.312;2022-11-15T02:21:51;13.70;99.90
31729;DHT22;18309;43.658;1.312;2022-11-15T02:39:19;13.70;99.90
31729;DHT22;18309;43.658;1.312;2022-11-15T02:44:40;13.70;99.90
31729;DHT22;18309;43.658;1.312;2022-11-15T02:47:13;13.60;99.90
31729;DHT22;18309;43.658;1.312;2022-11-15T02:49:50;13.70;99.90
31729;DHT22;18309;43.658;1.312;2022-11-15T02:52:22;13.60;99.90
31729;DHT22;18309;43.658;1.312;2022-11-15T02:54:55;13.60;99.90
31729;DHT22;18309;43.658;1.312;2022-11-15T03:00:09;13.60;99.90
31729;DHT22;18309;43.658;1.312;2022-11-15T03:11:10;13.60;99.90
31729;DHT22;18309;43.658;1.312;2022-11-15T03:16:40;13.60;99.90
31729;DHT22;18309;43.658;1.312;2022-11-15T03:21:40;13.70;99.90
31729;DHT22;18309;43.658;1.312;2022-11-15T03:24:08;13.60;99.90
31729;DHT22;18309;43.658;1.312;2022-11-15T03:26:35;13.70;99.90
31729;DHT22;18309;43.658;1.312;2022-11-15T03:29:10;13.70;99.90
31729;DHT22;18309;43.658;1.312;2022-11-15T03:31:39;13.70;99.90
31729;DHT22;18309;43.658;1.312;2022-11-15T03:37:54;13.70;99.90
31729;DHT22;18309;43.658;1.312;2022-11-15T03:40:59;13.70;99.90
31729;DHT22;18309;43.658;1.312;2022-11-15T03:43:41;13.70;99.90
31729;DHT22;18309;43.658;1.312;2022-11-15T03:46:26;13.70;99.90
31729;DHT22;18309;43.658;1.312;2022-11-15T03:49:06;13.70;99.90
31729;DHT22;18309;43.658;1.312;2022-11-15T03:51:32;13.70;99.90
31729;DHT22;18309;43.658;1.312;2022-11-15T03:53:58;13.70;99.90
31729;DHT22;18309;43.658;1.312;2022-11-15T03:56:24;13.70;99.90
31729;DHT22;18309;43.658;1.312;2022-11-15T03:58:49;13.70;99.90
31729;DHT22;18309;43.658;1.312;2022-11-15T04:01:15;13.70;99.90
31729;DHT22;18309;43.658;1.312;2022-11-15T04:03:41;13.80;99.90
31729;DHT22;18309;43.658;1.312;2022-11-15T04:06:07;13.80;99.90
31729;DHT22;18309;43.658;1.312;2022-11-15T04:08:32;13.80;99.90
31729;DHT22;18309;43.658;1.312;2022-11-15T04:10:58;13.80;99.90
31729;DHT22;18309;43.658;1.312;2022-11-15T04:13:23;13.80;99.90
31729;DHT22;18309;43.658;1.312;2022-11-15T04:15:49;13.80;99.90
31729;DHT22;18309;43.658;1.312;2022-11-15T04:18:15;13.80;99.90
31729;DHT22;18309;43.658;1.312;2022-11-15T04:20:40;13.80;99.90
31729;DHT22;18309;43.658;1.312;2022-11-15T04:23:24;13.90;99.90
31729;DHT22;18309;43.658;1.312;2022-11-15T04:26:12;13.90;99.90
31729;DHT22;18309;43.658;1.312;2022-11-15T04:28:39;13.90;99.90
31729;DHT22;18309;43.658;1.312;2022-11-15T04:31:24;13.90;99.90
31729;DHT22;18309;43.658;1.312;2022-11-15T04:33:49;13.90;99.90
31729;DHT22;18309;43.658;1.312;2022-11-15T04:36:15;13.90;99.90
31729;DHT22;18309;43.658;1.312;2022-11-15T04:38:59;13.90;99.90
31729;DHT22;18309;43.658;1.312;2022-11-15T04:41:25;14.00;99.90
31729;DHT22;18309;43.658;1.312;2022-11-15T04:43:51;14.00;99.90
31729;DHT22;18309;43.658;1.312;2022-11-15T04:46:17;14.00;99.90
31729;DHT22;18309;43.658;1.312;2022-11-15T04:48:43;14.00;99.90
31729;DHT22;18309;43.658;1.312;2022-11-15T04:51:08;14.00;99.90
31729;DHT22;18309;43.658;1.312;2022-11-15T04:53:34;14.00;99.90
31729;DHT22;18309;43.658;1.312;2022-11-15T04:56:00;14.00;99.90
31729;DHT22;18309;43.658;1.312;2022-11-15T04:58:25;14.00;99.90
31729;DHT22;18309;43.658;1.312;2022-11-15T05:00:51;14.00;99.90
31729;DHT22;18309;43.658;1.312;2022-11-15T05:03:16;14.00;99.90
31729;DHT22;18309;43.658;1.312;2022-11-15T05:06:01;14.00;99.90
31729;DHT22;18309;43.658;1.312;2022-11-15T05:08:26;14.10;99.90
31729;DHT22;18309;43.658;1.312;2022-11-15T05:10:52;14.00;99.90
31729;DHT22;18309;43.658;1.312;2022-11-15T05:13:18;14.10;99.90
31729;DHT22;18309;43.658;1.312;2022-11-15T05:15:43;14.10;99.90
31729;DHT22;18309;43.658;1.312;2022-11-15T05:18:09;14.10;99.90
31729;DHT22;18309;43.658;1.312;2022-11-15T05:20:35;14.10;99.90
31729;DHT22;18309;43.658;1.312;2022-11-15T05:23:01;14.10;99.90
31729;DHT22;18309;43.658;1.312;2022-11-15T05:25:27;14.20;99.90
31729;DHT22;18309;43.658;1.312;2022-11-15T05:27:53;14.20;99.90
31729;DHT22;18309;43.658;1.312;2022-11-15T05:30:18;14.20;99.90
31729;DHT22;18309;43.658;1.312;2022-11-15T05:32:44;14.20;99.90
31729;DHT22;18309;43.658;1.312;2022-11-15T05:35:26;14.20;99.90
31729;DHT22;18309;43.658;1.312;2022-11-15T05:37:54;14.20;99.90
31729;DHT22;18309;43.658;1.312;2022-11-15T05:40:20;14.20;99.90
31729;DHT22;18309;43.658;1.312;2022-11-15T05:42:47;14.20;99.90
31729;DHT22;18309;43.658;1.312;2022-11-15T05:45:13;14.30;99.90
31729;DHT22;18309;43.658;1.312;2022-11-15T05:47:39;14.30;99.90
31729;DHT22;18309;43.658;1.312;2022-11-15T05:50:06;14.30;99.90
31729;DHT22;18309;43.658;1.312;2022-11-15T05:52:34;14.30;99.90
31729;DHT22;18309;43.658;1.312;2022-11-15T05:55:01;14.30;99.90
31729;DHT22;18309;43.658;1.312;2022-11-15T05:57:28;14.30;99.90
31729;DHT22;18309;43.658;1.312;2022-11-15T05:59:54;14.30;99.90
31729;DHT22;18309;43.658;1.312;2022-11-15T06:02:20;14.30;99.90
31729;DHT22;18309;43.658;1.312;2022-11-15T06:04:46;14.40;99.90
31729;DHT22;18309;43.658;1.312;2022-11-15T06:07:12;14.40;99.90
31729;DHT22;18309;43.658;1.312;2022-11-15T06:09:38;14.40;99.90
31729;DHT22;18309;43.658;1.312;2022-11-15T06:12:03;14.40;99.90
31729;DHT22;18309;43.658;1.312;2022-11-15T06:14:29;14.40;99.90
31729;DHT22;18309;43.658;1.312;2022-11-15T06:16:55;14.40;99.90
31729;DHT22;18309;43.658;1.312;2022-11-15T06:19:21;14.40;99.90
31729;DHT22;18309;43.658;1.312;2022-11-15T06:21:46;14.40;99.90
31729;DHT22;18309;43.658;1.312;2022-11-15T06:24:12;14.40;99.90
31729;DHT22;18309;43.658;1.312;2022-11-15T06:26:38;14.40;99.90
31729;DHT22;18309;43.658;1.312;2022-11-15T06:29:04;14.50;99.90
31729;DHT22;18309;43.658;1.312;2022-11-15T06:31:30;14.40;99.90
31729;DHT22;18309;43.658;1.312;2022-11-15T06:33:55;14.40;99.90
31729;DHT22;18309;43.658;1.312;2022-11-15T06:36:21;14.50;99.90
31729;DHT22;18309;43.658;1.312;2022-11-15T06:38:47;14.50;99.90
31729;DHT22;18309;43.658;1.312;2022-11-15T06:41:13;14.50;99.90
31729;DHT22;18309;43.658;1.312;2022-11-15T06:43:40;14.50;99.90
31729;DHT22;18309;43.658;1.312;2022-11-15T06:46:06;14.50;99.90
31729;DHT22;18309;43.658;1.312;2022-11-15T06:48:33;14.50;99.90
31729;DHT22;18309;43.658;1.312;2022-11-15T06:51:00;14.50;99.90
31729;DHT22;18309;43.658;1.312;2022-11-15T06:53:27;14.50;99.90
31729;DHT22;18309;43.658;1.312;2022-11-15T06:55:53;14.50;99.90
31729;DHT22;18309;43.658;1.312;2022-11-15T06:58:21;14.50;99.90
31729;DHT22;18309;43.658;1.312;2022-11-15T07:00:46;14.50;99.90
31729;DHT22;18309;43.658;1.312;2022-11-15T07:03:12;14.50;99.90
31729;DHT22;18309;43.658;1.312;2022-11-15T07:05:38;14.60;99.90
31729;DHT22;18309;43.658;1.312;2022-11-15T07:08:04;14.60;99.90
31729;DHT22;18309;43.658;1.312;2022-11-15T07:10:29;14.60;99.90
31729;DHT22;18309;43.658;1.312;2022-11-15T07:12:56;14.60;99.90
31729;DHT22;18309;43.658;1.312;2022-11-15T07:15:26;14.60;99.90
31729;DHT22;18309;43.658;1.312;2022-11-15T07:17:51;14.60;99.90
31729;DHT22;18309;43.658;1.312;2022-11-15T07:20:17;14.60;99.90
31729;DHT22;18309;43.658;1.312;2022-11-15T07:22:44;14.60;99.90
31729;DHT22;18309;43.658;1.312;2022-11-15T07:25:12;14.60;99.90
31729;DHT22;18309;43.658;1.312;2022-11-15T07:27:38;14.60;99.90
31729;DHT22;18309;43.658;1.312;2022-11-15T07:30:04;14.60;99.90
31729;DHT22;18309;43.658;1.312;2022-11-15T07:32:30;14.70;99.90
31729;DHT22;18309;43.658;1.312;2022-11-15T07:34:56;14.70;99.90
31729;DHT22;18309;43.658;1.312;2022-11-15T07:37:21;14.70;99.90
31729;DHT22;18309;43.658;1.312;2022-11-15T07:39:47;14.60;99.90
31729;DHT22;18309;43.658;1.312;2022-11-15T07:42:13;14.60;99.90
31729;DHT22;18309;43.658;1.312;2022-11-15T07:44:57;14.50;99.90
31729;DHT22;18309;43.658;1.312;2022-11-15T07:47:22;14.50;99.90
31729;DHT22;18309;43.658;1.312;2022-11-15T07:49:48;14.50;99.90
31729;DHT22;18309;43.658;1.312;2022-11-15T07:52:14;14.50;99.90
31729;DHT22;18309;43.658;1.312;2022-11-15T07:54:40;14.40;99.90
31729;DHT22;18309;43.658;1.312;2022-11-15T07:57:06;14.50;99.90
31729;DHT22;18309;43.658;1.312;2022-11-15T07:59:32;14.50;99.90
31729;DHT22;18309;43.658;1.312;2022-11-15T08:02:00;14.50;99.90
31729;DHT22;18309;43.658;1.312;2022-11-15T08:04:25;14.50;99.90
31729;DHT22;18309;43.658;1.312;2022-11-15T08:06:51;14.50;99.90
31729;DHT22;18309;43.658;1.312;2022-11-15T08:09:17;14.50;99.90
31729;DHT22;18309;43.658;1.312;2022-11-15T08:11:42;14.50;99.90
31729;DHT22;18309;43.658;1.312;2022-11-15T08:14:08;14.50;99.90
31729;DHT22;18309;43.658;1.312;2022-11-15T08:16:34;14.50;99.90
31729;DHT22;18309;43.658;1.312;2022-11-15T08:18:59;14.60;99.90
31729;DHT22;18309;43.658;1.312;2022-11-15T08:21:25;14.60;99.90
31729;DHT22;18309;43.658;1.312;2022-11-15T08:23:51;14.60;99.90
31729;DHT22;18309;43.658;1.312;2022-11-15T08:26:17;14.60;99.90
31729;DHT22;18309;43.658;1.312;2022-11-15T08:28:43;14.60;99.90
31729;DHT22;18309;43.658;1.312;2022-11-15T08:31:17;14.70;99.90
31729;DHT22;18309;43.658;1.312;2022-11-15T08:33:43;14.80;99.90
31729;DHT22;18309;43.658;1.312;2022-11-15T08:36:14;14.80;99.90
31729;DHT22;18309;43.658;1.312;2022-11-15T08:38:40;14.80;99.90
31729;DHT22;18309;43.658;1.312;2022-11-15T08:41:06;14.90;99.90
31729;DHT22;18309;43.658;1.312;2022-11-15T08:43:32;14.90;99.90
31729;DHT22;18309;43.658;1.312;2022-11-15T08:45:58;14.90;99.90
31729;DHT22;18309;43.658;1.312;2022-11-15T08:48:24;15.00;99.90
31729;DHT22;18309;43.658;1.312;2022-11-15T08:50:54;15.00;99.90
31729;DHT22;18309;43.658;1.312;2022-11-15T08:53:20;15.00;99.90
31729;DHT22;18309;43.658;1.312;2022-11-15T08:55:46;15.00;99.90
31729;DHT22;18309;43.658;1.312;2022-11-15T08:58:12;15.00;99.90
31729;DHT22;18309;43.658;1.312;2022-11-15T09:00:37;15.00;99.90
31729;DHT22;18309;43.658;1.312;2022-11-15T09:03:04;15.00;99.90
31729;DHT22;18309;43.658;1.312;2022-11-15T09:05:30;15.10;99.90
31729;DHT22;18309;43.658;1.312;2022-11-15T09:07:56;15.10;99.90
31729;DHT22;18309;43.658;1.312;2022-11-15T09:10:22;15.10;99.90
31729;DHT22;18309;43.658;1.312;2022-11-15T09:12:48;15.20;99.90
31729;DHT22;18309;43.658;1.312;2022-11-15T09:15:15;15.20;99.90
31729;DHT22;18309;43.658;1.312;2022-11-15T09:17:41;15.20;99.90
31729;DHT22;18309;43.658;1.312;2022-11-15T09:20:08;15.30;99.90
31729;DHT22;18309;43.658;1.312;2022-11-15T09:22:34;15.30;99.90
31729;DHT22;18309;43.658;1.312;2022-11-15T09:25:02;15.30;99.90
31729;DHT22;18309;43.658;1.312;2022-11-15T09:27:31;15.40;99.90
31729;DHT22;18309;43.658;1.312;2022-11-15T09:29:56;15.40;99.90
31729;DHT22;18309;43.658;1.312;2022-11-15T09:32:22;15.50;99.90
31729;DHT22;18309;43.658;1.312;2022-11-15T09:34:49;15.60;99.90
31729;DHT22;18309;43.658;1.312;2022-11-15T09:37:15;15.60;99.90
31729;DHT22;18309;43.658;1.312;2022-11-15T09:39:40;15.60;99.90
31729;DHT22;18309;43.658;1.312;2022-11-15T09:45:10;15.60;99.90
31729;DHT22;18309;43.658;1.312;2022-11-15T09:50:15;15.60;99.90
31729;DHT22;18309;43.658;1.312;2022-11-15T09:52:44;15.60;99.90
31729;DHT22;18309;43.658;1.312;2022-11-15T09:55:12;15.60;99.90
31729;DHT22;18309;43.658;1.312;2022-11-15T10:05:14;15.80;99.90
31729;DHT22;18309;43.658;1.312;2022-11-15T10:11:04;15.90;99.90
31729;DHT22;18309;43.658;1.312;2022-11-15T10:13:38;16.00;99.90
31729;DHT22;18309;43.658;1.312;2022-11-15T10:22:12;16.30;99.90
31729;DHT22;18309;43.658;1.312;2022-11-15T10:24:44;16.50;99.90
31729;DHT22;18309;43.658;1.312;2022-11-15T10:27:18;16.60;99.90
31729;DHT22;18309;43.658;1.312;2022-11-15T10:29:46;16.80;99.90
31729;DHT22;18309;43.658;1.312;2022-11-15T10:32:14;17.00;99.90
31729;DHT22;18309;43.658;1.312;2022-11-15T10:34:40;17.00;99.90
31729;DHT22;18309;43.658;1.312;2022-11-15T10:37:05;17.00;99.90
31729;DHT22;18309;43.658;1.312;2022-11-15T10:39:32;17.10;99.90
31729;DHT22;18309;43.658;1.312;2022-11-15T10:42:25;17.10;99.90
31729;DHT22;18309;43.658;1.312;2022-11-15T10:44:51;17.20;99.90
31729;DHT22;18309;43.658;1.312;2022-11-15T10:47:30;17.20;99.90
31729;DHT22;18309;43.658;1.312;2022-11-15T10:50:25;17.20;99.90
31729;DHT22;18309;43.658;1.312;2022-11-15T10:52:52;17.30;99.90
31729;DHT22;18309;43.658;1.312;2022-11-15T10:57:59;17.20;99.90
31729;DHT22;18309;43.658;1.312;2022-11-15T11:00:30;17.30;99.90
31729;DHT22;18309;43.658;1.312;2022-11-15T11:05:37;17.30;99.90
31729;DHT22;18309;43.658;1.312;2022-11-15T11:10:33;17.30;99.90
31729;DHT22;18309;43.658;1.312;2022-11-15T11:13:26;17.20;99.90
31729;DHT22;18309;43.658;1.312;2022-11-15T11:24:49;17.20;99.90
31729;DHT22;18309;43.658;1.312;2022-11-15T11:30:22;17.50;99.90
31729;DHT22;18309;43.658;1.312;2022-11-15T11:32:53;17.70;99.90
31729;DHT22;18309;43.658;1.312;2022-11-15T11:49:16;17.60;99.90
31729;DHT22;18309;43.658;1.312;2022-11-15T11:54:25;17.60;99.90
31729;DHT22;18309;43.658;1.312;2022-11-15T11:56:57;17.60;99.90
31729;DHT22;18309;43.658;1.312;2022-11-15T12:02:11;17.70;99.90
31729;DHT22;18309;43.658;1.312;2022-11-15T12:04:40;17.80;99.90
31729;DHT22;18309;43.658;1.312;2022-11-15T12:07:15;18.00;99.90
31729;DHT22;18309;43.658;1.312;2022-11-15T12:09:58;18.10;99.90
31729;DHT22;18309;43.658;1.312;2022-11-15T12:17:36;18.20;99.90
31729;DHT22;18309;43.658;1.312;2022-11-15T12:20:13;18.20;99.90
31729;DHT22;18309;43.658;1.312;2022-11-15T12:23:15;18.20;99.90
31729;DHT22;18309;43.658;1.312;2022-11-15T12:26:08;18.20;99.90
31729;DHT22;18309;43.658;1.312;2022-11-15T12:31:02;18.20;99.90
31729;DHT22;18309;43.658;1.312;2022-11-15T12:36:09;18.10;99.90
31729;DHT22;18309;43.658;1.312;2022-11-15T12:41:25;18.10;99.90
31729;DHT22;18309;43.658;1.312;2022-11-15T12:43:51;18.10;99.90
31729;DHT22;18309;43.658;1.312;2022-11-15T12:59:58;18.00;99.90
31729;DHT22;18309;43.658;1.312;2022-11-15T13:22:45;18.10;99.90
31729;DHT22;18309;43.658;1.312;2022-11-15T13:35:46;18.20;99.90
31729;DHT22;18309;43.658;1.312;2022-11-15T13:38:40;18.20;99.90
31729;DHT22;18309;43.658;1.312;2022-11-15T13:41:36;18.10;99.90
31729;DHT22;18309;43.658;1.312;2022-11-15T13:44:23;18.10;99.90
31729;DHT22;18309;43.658;1.312;2022-11-15T13:47:09;18.10;99.90
31729;DHT22;18309;43.658;1.312;2022-11-15T13:49:38;18.10;99.90
31729;DHT22;18309;43.658;1.312;2022-11-15T13:52:06;18.10;99.90
31729;DHT22;18309;43.658;1.312;2022-11-15T13:57:15;18.00;99.90
31729;DHT22;18309;43.658;1.312;2022-11-15T13:59:55;17.90;99.90
31729;DHT22;18309;43.658;1.312;2022-11-15T14:02:31;17.90;99.90
31729;DHT22;18309;43.658;1.312;2022-11-15T14:05:20;17.90;99.90
31729;DHT22;18309;43.658;1.312;2022-11-15T14:08:12;17.80;99.90
31729;DHT22;18309;43.658;1.312;2022-11-15T14:10:46;17.80;99.90
31729;DHT22;18309;43.658;1.312;2022-11-15T14:13:28;17.80;99.90
31729;DHT22;18309;43.658;1.312;2022-11-15T14:15:54;17.90;99.90
31729;DHT22;18309;43.658;1.312;2022-11-15T14:18:58;17.80;99.90
31729;DHT22;18309;43.658;1.312;2022-11-15T14:21:24;17.80;99.90
31729;DHT22;18309;43.658;1.312;2022-11-15T14:23:49;17.80;99.90
31729;DHT22;18309;43.658;1.312;2022-11-15T14:26:33;17.70;99.90
31729;DHT22;18309;43.658;1.312;2022-11-15T14:29:36;17.60;99.90
31729;DHT22;18309;43.658;1.312;2022-11-15T14:32:25;17.60;99.90
31729;DHT22;18309;43.658;1.312;2022-11-15T14:34:56;17.60;99.90
31729;DHT22;18309;43.658;1.312;2022-11-15T14:37:25;17.60;99.90
31729;DHT22;18309;43.658;1.312;2022-11-15T14:39:52;17.60;99.90
31729;DHT22;18309;43.658;1.312;2022-11-15T14:42:18;17.50;99.90
31729;DHT22;18309;43.658;1.312;2022-11-15T14:44:44;17.50;99.90
31729;DHT22;18309;43.658;1.312;2022-11-15T14:47:10;17.50;99.90
31729;DHT22;18309;43.658;1.312;2022-11-15T14:49:36;17.50;99.90
31729;DHT22;18309;43.658;1.312;2022-11-15T14:52:01;17.50;99.90
31729;DHT22;18309;43.658;1.312;2022-11-15T14:54:27;17.40;99.90
31729;DHT22;18309;43.658;1.312;2022-11-15T14:56:53;17.40;99.90
31729;DHT22;18309;43.658;1.312;2022-11-15T14:59:18;17.40;99.90
31729;DHT22;18309;43.658;1.312;2022-11-15T15:01:44;17.30;99.90
31729;DHT22;18309;43.658;1.312;2022-11-15T15:04:10;17.30;99.90
31729;DHT22;18309;43.658;1.312;2022-11-15T15:06:36;17.30;99.90
31729;DHT22;18309;43.658;1.312;2022-11-15T15:09:02;17.30;99.90
31729;DHT22;18309;43.658;1.312;2022-11-15T15:11:31;17.20;99.90
31729;DHT22;18309;43.658;1.312;2022-11-15T15:13:57;17.20;99.90
31729;DHT22;18309;43.658;1.312;2022-11-15T15:16:26;17.10;99.90
31729;DHT22;18309;43.658;1.312;2022-11-15T15:18:52;17.10;99.90
31729;DHT22;18309;43.658;1.312;2022-11-15T15:21:22;17.00;99.90
31729;DHT22;18309;43.658;1.312;2022-11-15T15:23:48;16.90;99.90
31729;DHT22;18309;43.658;1.312;2022-11-15T15:26:14;17.00;99.90
31729;DHT22;18309;43.658;1.312;2022-11-15T15:28:39;17.00;99.90
31729;DHT22;18309;43.658;1.312;2022-11-15T15:31:05;17.00;99.90
31729;DHT22;18309;43.658;1.312;2022-11-15T15:33:32;17.00;99.90
31729;DHT22;18309;43.658;1.312;2022-11-15T15:35:57;17.00;99.90
31729;DHT22;18309;43.658;1.312;2022-11-15T15:38:24;17.00;99.90
31729;DHT22;18309;43.658;1.312;2022-11-15T15:40:50;17.00;99.90
31729;DHT22;18309;43.658;1.312;2022-11-15T15:43:15;17.00;99.90
31729;DHT22;18309;43.658;1.312;2022-11-15T15:45:41;17.00;99.90
31729;DHT22;18309;43.658;1.312;2022-11-15T15:48:12;17.00;99.90
31729;DHT22;18309;43.658;1.312;2022-11-15T15:50:38;16.90;99.90
31729;DHT22;18309;43.658;1.312;2022-11-15T15:53:04;16.90;99.90
31729;DHT22;18309;43.658;1.312;2022-11-15T15:55:30;16.90;99.90
31729;DHT22;18309;43.658;1.312;2022-11-15T15:57:56;16.80;99.90
31729;DHT22;18309;43.658;1.312;2022-11-15T16:00:23;16.80;99.90
31729;DHT22;18309;43.658;1.312;2022-11-15T16:02:50;16.80;99.90
31729;DHT22;18309;43.658;1.312;2022-11-15T16:05:17;16.90;99.90
31729;DHT22;18309;43.658;1.312;2022-11-15T16:07:43;16.90;99.90
31729;DHT22;18309;43.658;1.312;2022-11-15T16:10:26;16.90;99.90
31729;DHT22;18309;43.658;1.312;2022-11-15T16:12:53;16.80;99.90
31729;DHT22;18309;43.658;1.312;2022-11-15T16:15:20;16.80;99.90
31729;DHT22;18309;43.658;1.312;2022-11-15T16:18:05;16.80;99.90
31729;DHT22;18309;43.658;1.312;2022-11-15T16:20:42;16.80;99.90
31729;DHT22;18309;43.658;1.312;2022-11-15T16:23:12;16.80;99.90
31729;DHT22;18309;43.658;1.312;2022-11-15T16:25:54;16.70;99.90
31729;DHT22;18309;43.658;1.312;2022-11-15T16:28:25;16.70;99.90
31729;DHT22;18309;43.658;1.312;2022-11-15T16:31:05;16.70;99.90
31729;DHT22;18309;43.658;1.312;2022-11-15T16:33:31;16.60;99.90
31729;DHT22;18309;43.658;1.312;2022-11-15T16:35:57;16.60;99.90
31729;DHT22;18309;43.658;1.312;2022-11-15T16:38:22;16.50;99.90
31729;DHT22;18309;43.658;1.312;2022-11-15T16:40:48;16.50;99.90
31729;DHT22;18309;43.658;1.312;2022-11-15T16:43:14;16.50;99.90
31729;DHT22;18309;43.658;1.312;2022-11-15T16:45:40;16.50;99.90
31729;DHT22;18309;43.658;1.312;2022-11-15T16:48:05;16.50;99.90
31729;DHT22;18309;43.658;1.312;2022-11-15T16:50:33;16.50;99.90
31729;DHT22;18309;43.658;1.312;2022-11-15T16:53:05;16.40;99.90
31729;DHT22;18309;43.658;1.312;2022-11-15T16:55:31;16.40;99.90
31729;DHT22;18309;43.658;1.312;2022-11-15T16:57:57;16.40;99.90
31729;DHT22;18309;43.658;1.312;2022-11-15T17:00:23;16.40;99.90
31729;DHT22;18309;43.658;1.312;2022-11-15T17:02:50;16.30;99.90
31729;DHT22;18309;43.658;1.312;2022-11-15T17:05:18;16.30;99.90
31729;DHT22;18309;43.658;1.312;2022-11-15T17:07:46;16.30;99.90
31729;DHT22;18309;43.658;1.312;2022-11-15T17:10:15;16.30;99.90
31729;DHT22;18309;43.658;1.312;2022-11-15T17:12:40;16.30;99.90
31729;DHT22;18309;43.658;1.312;2022-11-15T17:15:06;16.30;99.90
31729;DHT22;18309;43.658;1.312;2022-11-15T17:17:32;16.40;99.90
31729;DHT22;18309;43.658;1.312;2022-11-15T17:19:58;16.30;99.90
31729;DHT22;18309;43.658;1.312;2022-11-15T17:22:24;16.30;99.90
31729;DHT22;18309;43.658;1.312;2022-11-15T17:24:50;16.20;99.90
31729;DHT22;18309;43.658;1.312;2022-11-15T17:27:16;16.20;99.90
31729;DHT22;18309;43.658;1.312;2022-11-15T17:29:42;16.10;99.90
31729;DHT22;18309;43.658;1.312;2022-11-15T17:32:08;16.10;99.90
31729;DHT22;18309;43.658;1.312;2022-11-15T17:34:34;16.10;99.90
31729;DHT22;18309;43.658;1.312;2022-11-15T17:36:59;16.10;99.90
31729;DHT22;18309;43.658;1.312;2022-11-15T17:39:25;16.00;99.90
31729;DHT22;18309;43.658;1.312;2022-11-15T17:41:51;16.00;99.90
31729;DHT22;18309;43.658;1.312;2022-11-15T17:44:16;15.90;99.90
31729;DHT22;18309;43.658;1.312;2022-11-15T17:46:43;15.90;99.90
31729;DHT22;18309;43.658;1.312;2022-11-15T17:49:09;15.90;99.90
31729;DHT22;18309;43.658;1.312;2022-11-15T17:51:34;15.90;99.90
31729;DHT22;18309;43.658;1.312;2022-11-15T17:54:00;15.80;99.90
31729;DHT22;18309;43.658;1.312;2022-11-15T17:56:27;15.80;99.90
31729;DHT22;18309;43.658;1.312;2022-11-15T17:58:56;15.80;99.90
31729;DHT22;18309;43.658;1.312;2022-11-15T18:01:29;15.80;99.90
31729;DHT22;18309;43.658;1.312;2022-11-15T18:03:56;15.80;99.90
31729;DHT22;18309;43.658;1.312;2022-11-15T18:06:26;15.90;99.90
31729;DHT22;18309;43.658;1.312;2022-11-15T18:08:53;15.80;99.90
31729;DHT22;18309;43.658;1.312;2022-11-15T18:11:29;15.80;99.90
31729;DHT22;18309;43.658;1.312;2022-11-15T18:13:57;15.80;99.90
31729;DHT22;18309;43.658;1.312;2022-11-15T18:16:27;15.80;99.90
31729;DHT22;18309;43.658;1.312;2022-11-15T18:18:55;15.80;99.90
31729;DHT22;18309;43.658;1.312;2022-11-15T18:21:29;15.80;99.90
31729;DHT22;18309;43.658;1.312;2022-11-15T18:23:57;15.80;99.90